Time;durP1;ratioP1;P1;durP2;ratioP2;P2;SDS_P1;SDS_P2;PMS_P1;PMS_P2;Temp;Humidity;BMP_temperature;BMP_pressure;BME280_temperature;BME280_humidity;BME280_pressure;Samples;Min_cycle;Max_cycle;Signal;HPM_P1;HPM_P2
2023/10/29 00:01:36;;;;;;;9.50;4.35;;;;;;;12.30;100.00;98501.53;6137202;23;20512;-88
2023/10/29 00:04:04;;;;;;;10.98;3.92;;;;;;;12.30;100.00;98495.41;6113083;23;20356;-89
2023/10/29 00:06:31;;;;;;;12.55;5.10;;;;;;;12.30;100.00;98501.53;6089250;23;20052;-88
2023/10/29 00:08:58;;;;;;;9.73;3.83;;;;;;;12.29;100.00;98499.06;6113970;23;20021;-90
2023/10/29 00:11:25;;;;;;;8.82;4.88;;;;;;;12.33;100.00;98508.34;6089075;23;20025;-88
2023/10/29 00:13:52;;;;;;;9.73;4.40;;;;;;;12.31;100.00;98505.88;6089476;23;20364;-89
2023/10/29 00:16:18;;;;;;;11.02;5.43;;;;;;;12.31;100.00;98503.22;6112938;23;20029;-87
2023/10/29 00:18:45;;;;;;;11.35;3.95;;;;;;;12.33;100.00;98500.34;6136861;23;20024;-87
2023/10/29 00:21:12;;;;;;;14.40;3.78;;;;;;;12.33;100.00;98497.69;6113895;23;20456;-89
2023/10/29 00:23:39;;;;;;;9.07;3.65;;;;;;;12.34;100.00;98510.00;6088964;23;20026;-90
2023/10/29 00:26:06;;;;;;;9.70;4.13;;;;;;;12.30;100.00;98512.19;6137210;23;20033;-88
2023/10/29 00:28:33;;;;;;;14.13;4.03;;;;;;;12.33;100.00;98519.00;6114416;23;20025;-89
2023/10/29 00:30:59;;;;;;;13.07;3.53;;;;;;;12.31;100.00;98503.22;6114260;23;20032;-88
2023/10/29 00:33:26;;;;;;;9.13;4.05;;;;;;;12.33;100.00;98497.69;6139567;23;20456;-86
2023/10/29 00:35:54;;;;;;;9.88;3.85;;;;;;;12.33;100.00;98511.81;6115156;23;20057;-88
2023/10/29 00:38:21;;;;;;;9.35;3.63;;;;;;;12.33;100.00;98503.84;6089884;23;20336;-90
2023/10/29 00:40:48;;;;;;;7.35;3.95;;;;;;;12.32;100.00;98504.84;6114827;23;20025;-89
2023/10/29 00:43:15;;;;;;;15.68;3.88;;;;;;;12.33;100.00;98505.69;6090995;23;20022;-88
2023/10/29 00:45:43;;;;;;;6.53;3.55;;;;;;;12.31;100.00;98510.34;6090534;23;20029;-88
2023/10/29 00:48:10;;;;;;;9.77;3.65;;;;;;;12.30;100.00;98511.38;6114733;23;20033;-88
2023/10/29 00:50:38;;;;;;;6.72;3.22;;;;;;;12.30;100.00;98511.38;6066816;23;20033;-91
2023/10/29 00:53:05;;;;;;;14.00;3.75;;;;;;;12.25;100.00;98503.91;6114836;23;20072;-87
2023/10/29 00:55:32;;;;;;;8.50;3.95;;;;;;;12.26;100.00;98494.94;6066573;23;20052;-89
2023/10/29 00:57:59;;;;;;;12.10;3.65;;;;;;;12.25;100.00;98493.28;6139617;23;20032;-89
2023/10/29 01:00:26;;;;;;;6.20;3.10;;;;;;;12.24;100.00;98491.63;6091624;23;20049;-88
2023/10/29 01:02:54;;;;;;;7.25;3.30;;;;;;;12.23;100.00;98489.97;6095368;23;20040;-90
2023/10/29 01:05:22;;;;;;;8.20;3.20;;;;;;;12.24;100.00;98485.47;6100588;23;20323;-88
2023/10/29 01:07:51;;;;;;;13.38;3.60;;;;;;;12.25;100.00;98481.81;6120334;23;20018;-90
2023/10/29 01:10:17;;;;;;;4.18;2.60;;;;;;;12.25;100.00;98492.44;6071757;23;20025;-89
2023/10/29 01:12:45;;;;;;;16.13;3.78;;;;;;;12.22;100.00;98480.31;6119120;23;20029;-87
2023/10/29 01:15:12;;;;;;;12.10;3.58;;;;;;;12.25;100.00;98485.28;6071615;23;20018;-87
2023/10/29 01:17:39;;;;;;;5.50;3.28;;;;;;;12.24;100.00;98491.63;6118694;23;20048;-89
2023/10/29 01:20:06;;;;;;;6.13;2.88;;;;;;;12.23;100.00;98487.28;6071405;23;20441;-88
2023/10/29 01:22:36;;;;;;;10.25;3.15;;;;;;;12.25;100.00;98484.47;6096266;23;20021;-88
2023/10/29 01:25:07;;;;;;;8.75;2.90;;;;;;;12.26;100.00;98478.97;6095365;23;20041;-88
2023/10/29 01:27:34;;;;;;;6.47;3.22;;;;;;;12.24;100.00;98470.34;6119517;23;20072;-90
2023/10/29 01:30:00;;;;;;;7.88;2.95;;;;;;;12.23;100.00;98475.81;6070915;23;20026;-88
2023/10/29 01:32:27;;;;;;;6.30;3.13;;;;;;;12.20;100.00;98471.69;6072173;23;20084;-89
2023/10/29 01:34:55;;;;;;;10.82;3.42;;;;;;;12.23;100.00;98468.66;6119273;23;20026;-87
2023/10/29 01:37:22;;;;;;;8.68;2.90;;;;;;;12.23;100.00;98466.00;6119000;23;20359;-89
2023/10/29 01:39:49;;;;;;;11.88;3.15;;;;;;;12.24;100.00;98464.19;6071301;23;20028;-89
2023/10/29 01:42:16;;;;;;;9.13;2.83;;;;;;;12.24;100.00;98465.00;6094683;23;20040;-89
2023/10/29 01:44:43;;;;;;;8.70;2.92;;;;;;;12.25;100.00;98469.31;6095244;23;20026;-88
2023/10/29 01:47:10;;;;;;;7.68;2.80;;;;;;;12.24;100.00;98461.53;6095821;23;20412;-87
2023/10/29 01:49:37;;;;;;;8.63;2.75;;;;;;;12.23;100.00;98451.88;6095108;23;20022;-89
2023/10/29 01:52:04;;;;;;;9.15;2.85;;;;;;;12.26;100.00;98452.38;6095139;23;20356;-89
2023/10/29 01:54:31;;;;;;;6.43;2.67;;;;;;;12.27;100.00;98446.00;6096131;23;20025;-88
2023/10/29 01:56:58;;;;;;;10.15;3.15;;;;;;;12.27;100.00;98434.56;6095360;23;20084;-88
2023/10/29 01:59:25;;;;;;;14.23;3.53;;;;;;;12.26;100.00;98432.88;6071469;23;20456;-88
2023/10/29 02:01:52;;;;;;;8.13;3.22;;;;;;;12.25;100.00;98424.06;6091414;23;20025;-87
2023/10/29 02:04:26;;;;;;;5.40;2.83;;;;;;;12.25;100.00;98417.94;6139289;23;20503;-88
2023/10/29 02:06:54;;;;;;;7.18;2.95;;;;;;;12.25;100.00;98416.09;6091717;23;20029;-89
2023/10/29 02:09:21;;;;;;;9.63;3.10;;;;;;;12.25;100.00;98408.09;6090250;23;20037;-90
2023/10/29 02:11:48;;;;;;;7.13;3.03;;;;;;;12.25;100.00;98417.94;6089737;23;20368;-88
2023/10/29 02:14:15;;;;;;;9.68;2.63;;;;;;;12.24;100.00;98406.47;6115706;23;20047;-87
2023/10/29 02:16:42;;;;;;;8.32;2.80;;;;;;;12.23;100.00;98396.00;6115655;23;20028;-90
2023/10/29 02:19:09;;;;;;;5.68;2.58;;;;;;;12.25;100.00;98400.13;6066381;23;20034;-88
2023/10/29 02:21:36;;;;;;;5.53;2.50;;;;;;;12.24;100.00;98376.38;6090729;23;20021;-89
2023/10/29 02:24:03;;;;;;;9.85;3.30;;;;;;;12.25;100.00;98367.38;6090701;23;20033;-88
2023/10/29 02:26:30;;;;;;;7.32;2.92;;;;;;;12.26;100.00;98374.31;6114853;23;20049;-88
2023/10/29 02:28:59;;;;;;;12.60;3.50;;;;;;;12.24;100.00;98377.19;6138959;23;20056;-90
2023/10/29 02:31:25;;;;;;;13.10;3.42;;;;;;;12.26;100.00;98383.16;6113886;23;20037;-87
2023/10/29 02:33:53;;;;;;;9.88;3.13;;;;;;;12.24;100.00;98376.38;6090585;23;20036;-88
2023/10/29 02:36:20;;;;;;;6.30;2.50;;;;;;;12.25;100.00;98372.69;6091714;23;20029;-86
2023/10/29 02:38:47;;;;;;;7.10;3.00;;;;;;;12.24;100.00;98382.50;6090656;23;20483;-89
2023/10/29 02:41:14;;;;;;;6.70;3.00;;;;;;;12.24;100.00;98395.81;6090488;23;20029;-87
2023/10/29 02:43:41;;;;;;;8.55;3.05;;;;;;;12.23;100.00;98393.31;6090315;23;20028;-88
2023/10/29 02:46:10;;;;;;;8.20;3.20;;;;;;;12.21;100.00;98390.84;6139534;23;20037;-88
2023/10/29 02:48:37;;;;;;;5.28;2.70;;;;;;;12.22;100.00;98387.19;6066895;23;20084;-90
2023/10/29 02:51:04;;;;;;;5.53;3.03;;;;;;;12.22;100.00;98389.03;6090228;23;20080;-86
2023/10/29 02:53:31;;;;;;;7.43;3.13;;;;;;;12.23;100.00;98369.38;6140238;23;20021;-88
2023/10/29 02:55:59;;;;;;;10.45;3.50;;;;;;;12.22;100.00;98359.75;6114754;23;20104;-88
2023/10/29 02:58:26;;;;;;;3.35;2.33;;;;;;;12.23;100.00;98369.38;6066307;23;20080;-87
2023/10/29 03:01:02;;;;;;;10.10;2.65;;;;;;;12.23;100.00;98374.69;6141520;23;20092;-87
2023/10/29 03:03:30;;;;;;;8.45;2.55;;;;;;;12.22;100.00;98368.56;6139116;23;20451;-88
2023/10/29 03:05:57;;;;;;;8.30;2.50;;;;;;;12.22;100.00;98359.75;6066505;23;20036;-87
2023/10/29 03:08:24;;;;;;;8.65;2.78;;;;;;;12.22;100.00;98365.06;6089642;23;20029;-88
2023/10/29 03:10:51;;;;;;;10.10;2.40;;;;;;;12.18;100.00;98364.59;6066791;23;20029;-88
2023/10/29 03:13:18;;;;;;;7.53;2.75;;;;;;;12.21;100.00;98363.41;6090043;23;20360;-88
2023/10/29 03:15:45;;;;;;;2.85;2.15;;;;;;;12.20;100.00;98359.09;6141076;23;20024;-88
2023/10/29 03:18:13;;;;;;;12.20;2.25;;;;;;;12.18;100.00;98350.47;6089906;23;20021;-90
2023/10/29 03:20:41;;;;;;;6.13;2.40;;;;;;;12.18;100.00;98351.28;6066053;23;20033;-88
2023/10/29 03:23:08;;;;;;;7.50;2.85;;;;;;;12.19;100.00;98357.44;6090392;23;20104;-88
2023/10/29 03:25:35;;;;;;;9.68;2.65;;;;;;;12.16;100.00;98359.47;6090774;23;20029;-87
2023/10/29 03:28:02;;;;;;;2.70;2.20;;;;;;;12.16;100.00;98359.47;6114174;23;20325;-88
2023/10/29 03:30:29;;;;;;;16.60;3.85;;;;;;;12.19;100.00;98368.06;6141744;23;20017;-88
2023/10/29 03:32:56;;;;;;;5.28;2.83;;;;;;;12.16;100.00;98355.97;6138858;23;20041;-87
2023/10/29 03:35:26;;;;;;;9.55;2.40;;;;;;;12.15;100.00;98351.66;6091189;23;20053;-87
2023/10/29 03:37:53;;;;;;;10.27;2.25;;;;;;;12.12;100.00;98358.16;6114202;23;20034;-86
2023/10/29 03:40:20;;;;;;;8.18;2.30;;;;;;;12.14;100.00;98369.47;6114886;23;20104;-88
2023/10/29 03:42:47;;;;;;;7.20;2.25;;;;;;;12.12;100.00;98371.47;6113837;23;20025;-88
2023/10/29 03:45:14;;;;;;;8.23;2.10;;;;;;;12.11;100.00;98364.50;6114926;23;21387;-87
2023/10/29 03:47:42;;;;;;;8.32;2.45;;;;;;;12.10;100.00;98370.00;6090689;23;20025;-89
2023/10/29 03:50:09;;;;;;;6.47;1.95;;;;;;;12.09;99.79;98371.03;6114135;23;20036;-89
2023/10/29 03:52:38;;;;;;;5.30;1.92;;;;;;;12.09;100.00;98379.81;6115004;23;20029;-91
2023/10/29 03:55:05;;;;;;;6.80;1.92;;;;;;;12.09;99.94;98387.00;6090990;23;20387;-90
2023/10/29 03:57:32;;;;;;;3.17;1.58;;;;;;;12.12;100.00;98408.72;6090465;23;20057;-89
2023/10/29 03:59:59;;;;;;;4.22;1.75;;;;;;;12.10;99.98;98402.75;6090209;23;20443;-89
2023/10/29 04:02:26;;;;;;;5.63;1.80;;;;;;;12.08;100.00;98404.75;6138458;23;20028;-90
2023/10/29 04:04:53;;;;;;;7.85;2.05;;;;;;;12.09;100.00;98397.63;6113519;23;20021;-87
2023/10/29 04:07:36;;;;;;;8.00;1.80;;;;;;;12.08;100.00;98403.94;6119043;23;20025;-90
2023/10/29 04:10:03;;;;;;;4.45;1.65;;;;;;;12.05;100.00;98394.47;6089818;23;20116;-88
2023/10/29 04:12:32;;;;;;;7.05;2.00;;;;;;;12.07;100.00;98402.28;6094604;23;20434;-88
2023/10/29 04:14:59;;;;;;;4.60;1.60;;;;;;;12.05;99.64;98401.66;6115355;23;20048;-87
2023/10/29 04:17:25;;;;;;;5.88;1.60;;;;;;;12.02;99.53;98394.03;6114040;23;20044;-89
2023/10/29 04:19:53;;;;;;;10.23;2.08;;;;;;;12.02;99.61;98394.84;6089431;23;20029;-90
2023/10/29 04:22:20;;;;;;;5.90;1.83;;;;;;;12.02;99.78;98394.84;6138740;23;20470;-88
2023/10/29 04:24:46;;;;;;;5.25;1.83;;;;;;;12.02;99.88;98394.03;6114501;23;20025;-87
2023/10/29 04:27:13;;;;;;;5.47;2.13;;;;;;;12.04;100.00;98405.31;6113780;23;20045;-89
2023/10/29 04:29:40;;;;;;;3.20;1.67;;;;;;;12.03;100.00;98401.00;6114133;23;20017;-88
2023/10/29 04:32:07;;;;;;;9.68;2.17;;;;;;;12.02;100.00;98389.53;6138476;23;20120;-87
2023/10/29 04:34:34;;;;;;;3.92;1.90;;;;;;;12.04;100.00;98402.66;6140564;23;20022;-88
2023/10/29 04:37:02;;;;;;;3.67;1.83;;;;;;;12.03;100.00;98398.34;6114271;23;20021;-89
2023/10/29 04:39:30;;;;;;;5.38;2.25;;;;;;;12.04;100.00;98390.19;6138031;23;20032;-87
2023/10/29 04:41:56;;;;;;;4.93;3.35;;;;;;;12.03;100.00;98387.69;6139267;23;20041;-90
2023/10/29 04:44:24;;;;;;;8.73;2.63;;;;;;;12.02;100.00;98386.88;6139089;23;20028;-90
2023/10/29 04:46:50;;;;;;;8.40;2.67;;;;;;;12.02;100.00;98386.06;6113028;23;20105;-89
2023/10/29 04:49:17;;;;;;;8.13;3.13;;;;;;;12.00;100.00;98378.25;6137912;23;20453;-89
2023/10/29 04:51:44;;;;;;;10.15;3.90;;;;;;;12.01;100.00;98379.06;6143769;23;20045;-88
2023/10/29 04:54:11;;;;;;;9.30;3.17;;;;;;;11.98;100.00;98385.56;6114190;23;20102;-88
2023/10/29 04:56:38;;;;;;;5.82;3.50;;;;;;;11.98;100.00;98377.59;6138767;23;20041;-87
2023/10/29 04:59:05;;;;;;;5.97;3.58;;;;;;;12.00;100.00;98383.56;6114713;23;20021;-87
2023/10/29 05:01:32;;;;;;;6.57;3.28;;;;;;;11.98;100.00;98387.41;6113482;23;20100;-90
2023/10/29 05:03:59;;;;;;;9.43;3.33;;;;;;;11.99;100.00;98381.09;6114673;23;20404;-90
2023/10/29 05:06:26;;;;;;;6.75;3.30;;;;;;;11.98;100.00;98380.25;6116344;23;20021;-88
2023/10/29 05:08:53;;;;;;;7.80;3.33;;;;;;;11.98;100.00;98377.59;6091307;23;20028;-88
2023/10/29 05:11:20;;;;;;;16.05;4.20;;;;;;;11.95;100.00;98373.44;6115318;23;20029;-87
2023/10/29 05:13:47;;;;;;;10.23;3.75;;;;;;;11.99;100.00;98381.91;6139651;23;20025;-88
2023/10/29 05:16:14;;;;;;;9.13;3.08;;;;;;;11.98;100.00;98387.41;6068249;23;20353;-88
2023/10/29 05:18:41;;;;;;;5.13;2.83;;;;;;;11.95;100.00;98381.44;6140474;23;20444;-87
2023/10/29 05:21:08;;;;;;;6.28;3.50;;;;;;;11.93;100.00;98379.97;6140111;23;20104;-88
2023/10/29 05:23:35;;;;;;;7.10;2.80;;;;;;;11.97;100.00;98383.09;6091414;23;20060;-88
2023/10/29 05:26:02;;;;;;;5.35;2.63;;;;;;;11.99;100.00;98391.75;6116539;23;20451;-88
2023/10/29 05:28:29;;;;;;;7.15;3.22;;;;;;;11.97;100.00;98386.59;6114502;23;20048;-88
2023/10/29 05:30:56;;;;;;;6.30;3.03;;;;;;;11.97;100.00;98377.78;6090471;23;20404;-88
2023/10/29 05:33:23;;;;;;;6.55;3.42;;;;;;;11.95;100.00;98381.44;6115914;23;20460;-90
2023/10/29 05:35:49;;;;;;;7.05;3.65;;;;;;;11.93;100.00;98387.94;6091150;23;20025;-87
2023/10/29 05:38:16;;;;;;;6.75;3.40;;;;;;;11.94;100.00;98389.63;6140226;23;20029;-87
2023/10/29 05:40:43;;;;;;;9.43;3.50;;;;;;;11.95;100.00;98381.44;6115670;23;20069;-88
2023/10/29 05:43:10;;;;;;;7.80;3.10;;;;;;;11.94;100.00;98377.13;6066579;23;20540;-87
2023/10/29 05:45:37;;;;;;;11.48;3.33;;;;;;;11.94;100.00;98387.78;6091710;23;20033;-88
2023/10/29 05:48:04;;;;;;;4.80;3.50;;;;;;;11.94;100.00;98392.28;6091000;23;20030;-90
2023/10/29 05:50:31;;;;;;;8.55;3.78;;;;;;;11.94;100.00;98389.63;6115507;23;20032;-89
2023/10/29 05:52:58;;;;;;;7.47;3.80;;;;;;;11.92;100.00;98381.81;6092026;23;21739;-88
2023/10/29 05:55:25;;;;;;;4.18;3.60;;;;;;;11.93;100.00;98391.44;6091340;23;20021;-87
2023/10/29 05:57:52;;;;;;;6.20;3.80;;;;;;;11.93;100.00;98393.25;6043358;23;20526;-88
2023/10/29 06:00:19;;;;;;;12.43;3.67;;;;;;;11.92;100.00;98397.75;6092336;23;20511;-90
2023/10/29 06:02:46;;;;;;;10.98;3.70;;;;;;;11.90;100.00;98393.63;6090521;23;20033;-87
2023/10/29 06:05:13;;;;;;;6.78;3.65;;;;;;;11.93;100.00;98410.06;6141358;23;20029;-88
2023/10/29 06:07:43;;;;;;;11.35;3.63;;;;;;;11.92;100.00;98413.72;6067183;23;20022;-89
2023/10/29 06:10:13;;;;;;;11.93;3.47;;;;;;;11.89;100.00;98418.59;6114728;23;20108;-89
2023/10/29 06:12:41;;;;;;;4.35;3.15;;;;;;;11.93;100.00;98425.19;6090810;23;20032;-88
2023/10/29 06:15:09;;;;;;;5.00;3.35;;;;;;;11.94;100.00;98426.84;6066902;23;20029;-88
2023/10/29 06:17:37;;;;;;;6.53;3.30;;;;;;;11.92;100.00;98426.19;6114185;23;20487;-89
2023/10/29 06:20:05;;;;;;;9.63;3.72;;;;;;;11.91;100.00;98424.56;6114778;23;20685;-88
2023/10/29 06:22:32;;;;;;;10.25;3.83;;;;;;;11.91;100.00;98427.22;6115329;23;20025;-88
2023/10/29 06:24:59;;;;;;;11.82;3.78;;;;;;;11.91;100.00;98436.00;6090781;23;20056;-89
2023/10/29 06:27:26;;;;;;;10.98;3.55;;;;;;;11.91;100.00;98443.19;6090675;23;20041;-89
2023/10/29 06:29:53;;;;;;;10.57;3.47;;;;;;;11.92;100.00;98444.81;6081698;23;20021;-88
2023/10/29 06:32:20;;;;;;;6.03;3.03;;;;;;;11.92;100.00;98452.78;6114330;23;20049;-89
2023/10/29 06:34:47;;;;;;;9.35;3.67;;;;;;;11.90;100.00;98447.66;6114229;23;20100;-88
2023/10/29 06:37:14;;;;;;;6.10;3.60;;;;;;;11.89;100.00;98453.97;6114929;23;20031;-89
2023/10/29 06:39:41;;;;;;;7.95;3.22;;;;;;;11.92;100.00;98458.94;6114954;23;20321;-87
2023/10/29 06:42:08;;;;;;;7.53;3.28;;;;;;;11.90;100.00;98457.47;6139600;23;20351;-88
2023/10/29 06:44:35;;;;;;;4.55;2.97;;;;;;;11.90;100.00;98454.81;6114626;23;20021;-88
2023/10/29 06:47:03;;;;;;;3.92;2.70;;;;;;;11.88;100.00;98455.00;6114095;23;20420;-88
2023/10/29 06:49:30;;;;;;;7.75;2.80;;;;;;;11.88;100.00;98460.31;6138301;23;20037;-90
2023/10/29 06:51:57;;;;;;;5.80;3.20;;;;;;;11.92;100.00;98466.09;6090809;23;20032;-89
2023/10/29 06:54:24;;;;;;;4.63;3.08;;;;;;;11.92;100.00;98471.41;6089957;23;20021;-89
2023/10/29 06:56:51;;;;;;;6.15;3.95;;;;;;;11.93;100.00;98489.03;6141848;23;20033;-88
2023/10/29 06:59:18;;;;;;;6.13;3.10;;;;;;;11.92;100.00;98503.34;6089900;23;20025;-87
2023/10/29 07:01:47;;;;;;;6.28;3.63;;;;;;;11.88;100.00;98518.84;6090255;23;20048;-88
2023/10/29 07:04:14;;;;;;;8.52;3.53;;;;;;;11.88;100.00;98532.13;6138295;23;20025;-90
2023/10/29 07:06:42;;;;;;;6.70;3.38;;;;;;;11.87;100.00;98530.47;6098945;23;20112;-88
2023/10/29 07:09:10;;;;;;;7.25;3.58;;;;;;;11.89;100.00;98546.25;6139064;23;20076;-88
2023/10/29 07:11:37;;;;;;;6.50;3.83;;;;;;;11.92;100.00;98567.19;6089339;23;20029;-90
2023/10/29 07:14:04;;;;;;;10.35;4.50;;;;;;;11.90;100.00;98564.69;6138958;23;20479;-89
2023/10/29 07:16:31;;;;;;;11.38;4.70;;;;;;;11.92;100.00;98577.81;6090682;23;20028;-88
2023/10/29 07:18:58;;;;;;;7.30;4.20;;;;;;;11.94;100.00;98584.63;6090284;23;20033;-89
2023/10/29 07:21:24;;;;;;;11.07;4.25;;;;;;;11.94;100.00;98581.97;6139026;23;20101;-88
2023/10/29 07:23:54;;;;;;;7.82;4.53;;;;;;;11.94;100.00;98608.56;6139053;23;20053;-90
2023/10/29 07:26:21;;;;;;;8.93;5.40;;;;;;;11.94;100.00;98594.44;6090184;23;20021;-88
2023/10/29 07:28:48;;;;;;;12.68;6.85;;;;;;;11.97;100.00;98593.25;6138221;23;20026;-88
2023/10/29 07:31:15;;;;;;;12.27;7.60;;;;;;;11.96;100.00;98600.41;6090400;23;20472;-89
2023/10/29 07:33:46;;;;;;;13.15;7.00;;;;;;;11.99;100.00;98588.59;6091670;23;20025;-87
2023/10/29 07:36:12;;;;;;;13.68;7.00;;;;;;;11.95;100.00;98580.13;6138348;23;20025;-88
2023/10/29 07:38:40;;;;;;;11.90;7.05;;;;;;;11.99;100.00;98581.44;6114217;23;20029;-88
2023/10/29 07:41:07;;;;;;;17.10;7.63;;;;;;;11.98;100.00;98566.47;6090231;23;20025;-88
2023/10/29 07:43:33;;;;;;;9.45;6.03;;;;;;;12.00;100.00;98568.97;6089186;23;20093;-91
2023/10/29 07:46:02;;;;;;;14.15;5.95;;;;;;;12.00;100.00;98582.25;6138645;23;20026;-89
2023/10/29 07:48:29;;;;;;;10.40;5.63;;;;;;;11.99;100.00;98581.44;6114074;23;20426;-90
2023/10/29 07:50:56;;;;;;;9.38;6.07;;;;;;;11.98;100.00;98569.13;6114471;23;20421;-88
2023/10/29 07:53:23;;;;;;;8.88;6.03;;;;;;;12.01;100.00;98566.13;6089472;23;20029;-88
2023/10/29 07:55:50;;;;;;;13.75;6.78;;;;;;;12.02;100.00;98551.00;6090940;23;20022;-89
2023/10/29 07:58:17;;;;;;;14.07;5.97;;;;;;;12.01;100.00;98566.13;6065855;23;20028;-88
2023/10/29 08:00:44;;;;;;;11.55;6.32;;;;;;;12.05;100.00;98553.31;6114050;23;20056;-88
2023/10/29 08:03:11;;;;;;;11.23;5.95;;;;;;;12.01;100.00;98551.97;6090621;23;20014;-87
2023/10/29 08:05:39;;;;;;;13.40;7.90;;;;;;;12.03;100.00;98544.66;6114237;23;20464;-89
2023/10/29 08:08:06;;;;;;;20.63;9.50;;;;;;;12.03;100.00;98539.34;6113511;23;20033;-89
2023/10/29 08:10:32;;;;;;;15.32;9.38;;;;;;;12.05;100.00;98542.66;6115227;23;20021;-88
2023/10/29 08:13:00;;;;;;;13.90;9.13;;;;;;;12.04;100.00;98538.34;6114219;23;20499;-89
2023/10/29 08:15:27;;;;;;;14.20;8.65;;;;;;;12.06;100.00;98539.84;6141372;23;20811;-90
2023/10/29 08:17:54;;;;;;;14.02;9.05;;;;;;;12.04;100.00;98547.16;6114610;23;20424;-89
2023/10/29 08:20:21;;;;;;;19.05;10.02;;;;;;;12.07;100.00;98561.94;6095164;23;20448;-88
2023/10/29 08:22:48;;;;;;;22.35;13.70;;;;;;;12.06;100.00;98554.94;6064914;23;20104;-90
2023/10/29 08:25:14;;;;;;;51.33;24.58;;;;;;;12.05;100.00;98556.78;6089450;23;20025;-88
2023/10/29 08:27:41;;;;;;;47.60;24.90;;;;;;;12.08;100.00;98569.72;6088537;23;20021;-89
2023/10/29 08:30:10;;;;;;;33.00;19.85;;;;;;;12.10;100.00;98567.72;6113519;23;20022;-90
2023/10/29 08:32:37;;;;;;;19.48;12.27;;;;;;;12.10;100.00;98572.22;6088486;23;20338;-89
2023/10/29 08:35:07;;;;;;;13.65;9.05;;;;;;;12.11;100.00;98565.88;6112269;23;20033;-89
2023/10/29 08:37:34;;;;;;;16.52;6.68;;;;;;;12.14;100.00;98568.22;6112419;23;20031;-89
2023/10/29 08:40:02;;;;;;;14.07;6.20;;;;;;;12.14;100.00;98560.22;6089456;23;20071;-89
2023/10/29 08:42:32;;;;;;;6.07;4.72;;;;;;;12.11;100.00;98561.41;6090100;23;20023;-90
2023/10/29 08:45:00;;;;;;;10.18;3.42;;;;;;;12.14;100.00;98573.53;6065093;23;20037;-89
2023/10/29 08:47:27;;;;;;;7.78;3.80;;;;;;;12.15;100.00;98561.88;6112331;23;20388;-89
2023/10/29 08:49:54;;;;;;;4.80;3.38;;;;;;;12.12;100.00;98555.06;6118627;23;20099;-89
2023/10/29 08:52:21;;;;;;;6.78;3.42;;;;;;;12.16;100.00;98558.19;6146233;23;20021;-90
2023/10/29 08:54:48;;;;;;;5.68;3.45;;;;;;;12.19;100.00;98563.19;6078333;23;20076;-89
2023/10/29 08:57:15;;;;;;;5.35;3.50;;;;;;;12.19;100.00;98555.22;6091209;23;20360;-89
2023/10/29 08:59:43;;;;;;;9.02;3.80;;;;;;;12.19;100.00;98557.88;6139969;23;20025;-88
2023/10/29 09:02:09;;;;;;;6.30;3.85;;;;;;;12.22;100.00;98560.16;6114933;23;20029;-89
2023/10/29 09:04:38;;;;;;;6.90;3.72;;;;;;;12.25;100.00;98558.97;6090963;23;20026;-86
2023/10/29 09:07:05;;;;;;;7.53;4.05;;;;;;;12.23;100.00;98558.31;6090812;23;20097;-89
2023/10/29 09:09:33;;;;;;;8.75;4.35;;;;;;;12.22;100.00;98564.66;6115001;23;20445;-89
2023/10/29 09:12:00;;;;;;;7.45;3.97;;;;;;;12.21;100.00;98555.84;6114254;23;20026;-87
2023/10/29 09:14:26;;;;;;;6.55;4.60;;;;;;;12.22;100.00;98549.53;6100142;23;20079;-87
2023/10/29 09:16:53;;;;;;;7.95;3.90;;;;;;;12.22;100.00;98549.53;6091131;23;20465;-88
2023/10/29 09:19:20;;;;;;;8.00;3.42;;;;;;;12.20;100.00;98559.50;6090462;23;20026;-87
2023/10/29 09:21:48;;;;;;;6.43;3.80;;;;;;;12.21;100.00;98558.50;6139583;23;20032;-88
2023/10/29 09:24:15;;;;;;;6.65;3.80;;;;;;;12.21;100.00;98552.34;6141682;23;20515;-86
2023/10/29 09:26:42;;;;;;;11.55;4.80;;;;;;;12.23;100.00;98550.34;6090541;23;20364;-87
2023/10/29 09:29:09;;;;;;;6.65;3.78;;;;;;;12.19;100.00;98541.03;6120662;23;20021;-89
2023/10/29 09:31:36;;;;;;;9.95;4.13;;;;;;;12.21;100.00;98544.38;6068978;23;20456;-88
2023/10/29 09:34:04;;;;;;;7.10;3.50;;;;;;;12.23;100.00;98561.81;6114547;23;20022;-88
2023/10/29 09:36:31;;;;;;;7.05;4.03;;;;;;;12.22;100.00;98556.69;6068901;23;20461;-88
2023/10/29 09:38:58;;;;;;;7.38;4.60;;;;;;;12.21;100.00;98537.19;6115617;23;20052;-87
2023/10/29 09:41:24;;;;;;;4.53;3.83;;;;;;;12.25;100.00;98551.00;6114849;23;20101;-87
2023/10/29 09:43:52;;;;;;;6.90;3.92;;;;;;;12.24;100.00;98542.19;6115593;23;20230;-87
2023/10/29 09:46:21;;;;;;;6.07;3.75;;;;;;;12.27;100.00;98541.84;6115071;23;20021;-89
2023/10/29 09:48:48;;;;;;;8.82;3.80;;;;;;;12.25;100.00;98543.00;6090346;23;20035;-89
2023/10/29 09:51:15;;;;;;;8.55;4.00;;;;;;;12.24;100.00;98526.22;6115668;23;20033;-87
2023/10/29 09:53:42;;;;;;;7.32;3.80;;;;;;;12.25;100.00;98532.38;6139442;23;20115;-88
2023/10/29 09:56:10;;;;;;;5.63;3.63;;;;;;;12.26;100.00;98536.69;6090868;23;20362;-88
2023/10/29 09:58:37;;;;;;;6.70;3.90;;;;;;;12.23;100.00;98529.06;6090420;23;20276;-89
2023/10/29 10:01:05;;;;;;;7.60;3.80;;;;;;;12.27;100.00;98541.00;6115691;23;20021;-86
2023/10/29 10:03:32;;;;;;;6.40;3.70;;;;;;;12.29;100.00;98554.97;6090742;23;20026;-88
2023/10/29 10:06:00;;;;;;;12.68;4.95;;;;;;;12.27;100.00;98539.16;6090815;23;20021;-88
2023/10/29 10:08:27;;;;;;;8.32;4.22;;;;;;;12.29;100.00;98537.16;6115287;23;20029;-88
2023/10/29 10:10:55;;;;;;;8.35;3.63;;;;;;;12.32;100.00;98542.13;6115164;23;20037;-89
2023/10/29 10:13:41;;;;;;;8.27;4.30;;;;;;;12.24;100.00;98539.53;6114589;23;20018;-89
2023/10/29 10:16:14;;;;;;;7.85;3.83;;;;;;;12.31;100.00;98539.63;6091226;23;20041;-87
2023/10/29 10:18:51;;;;;;;5.85;3.75;;;;;;;12.26;100.00;98534.88;6089778;23;20096;-89
2023/10/29 10:21:20;;;;;;;8.88;3.88;;;;;;;12.28;100.00;98532.00;6114750;23;20030;-88
2023/10/29 10:23:52;;;;;;;6.72;3.80;;;;;;;12.31;100.00;98540.47;6138042;23;20066;-88
2023/10/29 10:26:35;;;;;;;7.32;4.35;;;;;;;12.27;100.00;98533.03;6066213;23;20025;-88
2023/10/29 10:29:07;;;;;;;7.15;4.15;;;;;;;12.29;100.00;98525.69;6115131;23;20029;-88
2023/10/29 10:31:38;;;;;;;9.67;4.67;;;;;;;12.32;100.00;98531.47;6065857;23;20013;-89
2023/10/29 10:34:12;;;;;;;8.07;5.32;;;;;;;12.33;100.00;98530.47;6090386;23;20415;-87
2023/10/29 10:36:41;;;;;;;9.10;4.95;;;;;;;12.37;100.00;98538.94;6090785;23;20049;-88
2023/10/29 10:39:09;;;;;;;5.70;4.20;;;;;;;12.33;100.00;98534.97;6089460;23;20029;-88
2023/10/29 10:41:46;;;;;;;15.13;6.05;;;;;;;12.33;100.00;98537.63;6113953;23;20105;-88
2023/10/29 10:44:14;;;;;;;8.57;4.45;;;;;;;12.34;100.00;98518.00;6089987;23;20026;-88
2023/10/29 10:46:47;;;;;;;10.00;5.18;;;;;;;12.34;100.00;98516.16;6089211;23;20312;-87
2023/10/29 10:49:14;;;;;;;10.55;4.70;;;;;;;12.37;100.00;98515.78;6066433;23;20172;-88
2023/10/29 10:51:41;;;;;;;10.70;6.30;;;;;;;12.34;100.00;98502.03;6113824;23;20673;-87
2023/10/29 10:54:09;;;;;;;10.13;6.15;;;;;;;12.36;100.00;98495.53;6066447;23;20464;-87
2023/10/29 10:56:37;;;;;;;8.70;6.18;;;;;;;12.38;100.00;98495.31;6115057;23;20016;-88
2023/10/29 10:59:05;;;;;;;7.82;5.30;;;;;;;12.37;100.00;98502.50;6139242;23;20116;-89
2023/10/29 11:01:35;;;;;;;14.13;5.15;;;;;;;12.43;100.00;98486.81;6089917;23;20028;-87
2023/10/29 11:04:03;;;;;;;11.40;5.65;;;;;;;12.42;100.00;98501.94;6114779;23;20022;-87
2023/10/29 11:06:31;;;;;;;7.60;4.20;;;;;;;12.40;100.00;98480.00;6138194;23;20030;-89
2023/10/29 11:08:59;;;;;;;6.55;3.80;;;;;;;12.45;100.00;98488.28;6090619;23;20036;-87
2023/10/29 11:11:33;;;;;;;6.63;3.45;;;;;;;12.44;100.00;98472.47;6113689;23;20025;-86
2023/10/29 11:14:17;;;;;;;5.28;3.20;;;;;;;12.42;100.00;98464.69;6115018;23;20109;-86
2023/10/29 11:16:57;;;;;;;8.25;4.28;;;;;;;12.48;100.00;98457.81;6114408;23;20477;-87
2023/10/29 11:19:44;;;;;;;6.15;3.80;;;;;;;12.49;100.00;98457.63;6115070;23;20052;-88
2023/10/29 11:22:18;;;;;;;6.50;3.63;;;;;;;12.55;100.00;98453.41;6123784;23;20017;-88
2023/10/29 11:25:04;;;;;;;8.20;3.67;;;;;;;12.55;100.00;98450.75;6141383;23;20104;-88